Time;durP1;ratioP1;P1;durP2;ratioP2;P2;SDS_P1;SDS_P2;PMS_P1;PMS_P2;Temp;Humidity;BMP_temperature;BMP_pressure;BME280_temperature;BME280_humidity;BME280_pressure;Samples;Min_cycle;Max_cycle;Signal;HPM_P1;HPM_P2
2023/01/29 00:00:09;;;;;;;6.55;4.78;;;21.60;59.60;;;;;;5092689;28;20036;-77
2023/01/29 00:02:38;;;;;;;9.85;5.32;;;21.60;59.50;;;;;;5092682;28;20511;-77
2023/01/29 00:05:06;;;;;;;8.77;4.90;;;21.60;59.50;;;;;;5092616;28;20036;-77
2023/01/29 00:07:33;;;;;;;7.32;4.20;;;21.50;59.20;;;;;;5092754;28;20036;-77
2023/01/29 00:09:58;;;;;;;7.35;4.82;;;21.50;59.70;;;;;;5092353;28;20052;-77
2023/01/29 00:12:25;;;;;;;7.05;5.15;;;21.60;59.10;;;;;;5092484;28;20028;-77
2023/01/29 00:14:51;;;;;;;8.00;5.47;;;21.40;59.10;;;;;;5073405;28;20066;-77
2023/01/29 00:17:17;;;;;;;6.35;4.70;;;21.50;59.10;;;;;;5092346;28;20064;-77
2023/01/29 00:19:43;;;;;;;10.40;4.80;;;21.40;58.90;;;;;;5092202;28;20067;-77
2023/01/29 00:22:09;;;;;;;7.60;5.35;;;21.40;59.00;;;;;;5092314;28;20028;-76
2023/01/29 00:24:35;;;;;;;8.10;5.15;;;21.30;59.00;;;;;;5092163;28;20051;-76
2023/01/29 00:27:02;;;;;;;6.72;4.82;;;21.40;58.90;;;;;;5073005;28;20063;-77
2023/01/29 00:29:28;;;;;;;7.75;4.65;;;21.30;58.80;;;;;;5092336;28;20069;-76
2023/01/29 00:31:54;;;;;;;9.00;4.63;;;21.40;59.00;;;;;;5090436;28;20435;-75
2023/01/29 00:34:21;;;;;;;7.75;5.03;;;21.50;58.80;;;;;;5091576;28;20492;-75
2023/01/29 00:36:47;;;;;;;8.88;4.95;;;21.40;58.40;;;;;;5090976;28;20098;-75
2023/01/29 00:39:13;;;;;;;7.43;5.07;;;21.60;58.40;;;;;;5090719;28;20137;-76
2023/01/29 00:50:09;;;;;;;7.35;4.95;;;21.60;59.70;;;;;;5069006;28;20123;-75
2023/01/29 00:52:36;;;;;;;9.02;5.05;;;21.60;59.30;;;;;;5068810;28;20406;-75
2023/01/29 00:55:04;;;;;;;5.50;4.35;;;21.60;59.10;;;;;;5068842;28;20044;-74
2023/01/29 00:57:34;;;;;;;6.80;5.20;;;21.60;58.80;;;;;;5068677;28;20041;-75
2023/01/29 01:00:01;;;;;;;9.13;5.03;;;21.60;58.50;;;;;;5068820;28;20049;-75
2023/01/29 01:05:18;;;;;;;7.63;4.28;;;21.50;58.20;;;;;;5068837;28;20064;-75
2023/01/29 01:07:50;;;;;;;6.40;4.55;;;21.60;58.10;;;;;;5068940;28;20032;-75
2023/01/29 01:10:34;;;;;;;6.00;4.82;;;21.50;58.10;;;;;;5069153;28;20085;-75
2023/01/29 01:13:05;;;;;;;8.80;5.45;;;21.40;58.00;;;;;;5068431;28;20464;-75
2023/01/29 01:15:37;;;;;;;7.05;4.75;;;21.40;57.90;;;;;;5056156;28;20041;-75
2023/01/29 01:18:03;;;;;;;8.48;4.63;;;21.40;57.80;;;;;;5048149;28;20091;-75
2023/01/29 01:20:33;;;;;;;7.25;4.88;;;21.30;57.50;;;;;;5047777;28;20037;-75
2023/01/29 01:22:59;;;;;;;8.27;5.03;;;21.40;57.20;;;;;;5048234;28;20157;-75
2023/01/29 01:25:26;;;;;;;4.72;4.13;;;21.40;57.30;;;;;;5057148;28;20064;-75
2023/01/29 01:27:57;;;;;;;6.90;4.35;;;21.30;57.20;;;;;;5071272;28;20060;-75
2023/01/29 01:30:24;;;;;;;9.27;4.97;;;21.40;57.10;;;;;;5071388;28;20029;-75
2023/01/29 01:32:50;;;;;;;6.43;4.63;;;21.30;57.00;;;;;;5070005;28;20782;-75
2023/01/29 01:35:16;;;;;;;7.13;4.90;;;21.50;57.30;;;;;;5069697;28;20773;-75
2023/01/29 01:37:42;;;;;;;8.35;5.07;;;21.50;57.00;;;;;;5070147;28;20029;-75
2023/01/29 01:40:16;;;;;;;6.53;4.68;;;21.40;56.80;;;;;;5071087;28;20040;-74
2023/01/29 01:42:54;;;;;;;5.78;3.83;;;21.50;56.90;;;;;;5069765;28;20068;-75
2023/01/29 01:45:34;;;;;;;7.13;5.03;;;21.50;56.80;;;;;;5074498;28;20029;-75
2023/01/29 01:48:16;;;;;;;5.35;4.03;;;21.50;56.40;;;;;;5075017;28;20028;-75
2023/01/29 01:50:47;;;;;;;8.30;5.43;;;21.60;56.20;;;;;;5073735;28;20035;-75
2023/01/29 01:53:17;;;;;;;8.05;4.88;;;21.50;56.10;;;;;;5072139;28;20033;-75
2023/01/29 01:55:49;;;;;;;8.10;5.65;;;21.60;56.20;;;;;;5074299;28;20028;-75
2023/01/29 01:58:30;;;;;;;10.05;5.93;;;21.70;56.00;;;;;;5072914;28;20037;-75
2023/01/29 02:00:57;;;;;;;6.78;5.10;;;21.60;56.00;;;;;;5072539;28;20036;-74
2023/01/29 02:11:47;;;;;;;7.32;4.68;;;21.30;56.00;;;;;;5074358;28;20051;-75
2023/01/29 02:14:13;;;;;;;7.72;5.03;;;21.30;56.00;;;;;;5073062;28;20051;-75
2023/01/29 02:16:39;;;;;;;7.68;5.47;;;21.30;55.80;;;;;;5073407;28;20144;-75
2023/01/29 02:19:15;;;;;;;8.75;5.68;;;21.50;55.80;;;;;;5071829;28;20458;-75
2023/01/29 02:21:44;;;;;;;8.75;5.50;;;21.20;55.60;;;;;;5055334;28;20036;-75
2023/01/29 02:24:21;;;;;;;7.22;5.13;;;21.10;55.70;;;;;;5074217;28;20036;-75
2023/01/29 02:27:15;;;;;;;7.28;5.13;;;21.10;55.50;;;;;;5106999;28;20029;-74
2023/01/29 02:30:05;;;;;;;8.23;5.47;;;21.10;55.60;;;;;;5074351;28;20524;-75
2023/01/29 02:32:53;;;;;;;10.20;5.25;;;21.10;55.70;;;;;;5073962;28;20040;-75
2023/01/29 02:35:49;;;;;;;7.57;5.20;;;21.20;55.40;;;;;;5074290;28;20029;-75
2023/01/29 02:38:29;;;;;;;8.18;5.18;;;21.20;55.40;;;;;;5054921;28;20036;-75
2023/01/29 02:41:03;;;;;;;11.27;6.50;;;21.10;55.30;;;;;;5074013;28;20044;-75
2023/01/29 02:43:34;;;;;;;8.75;5.50;;;21.10;55.20;;;;;;5074011;28;20445;-75
2023/01/29 02:46:14;;;;;;;9.98;6.13;;;21.20;55.00;;;;;;5074149;28;20209;-75
2023/01/29 02:48:52;;;;;;;8.20;5.28;;;21.20;55.10;;;;;;5092050;28;20028;-75
2023/01/29 02:51:43;;;;;;;11.23;6.03;;;21.10;54.90;;;;;;5092783;28;20444;-75
2023/01/29 02:54:36;;;;;;;8.18;5.65;;;21.20;54.80;;;;;;5094148;28;20345;-75
2023/01/29 02:57:33;;;;;;;10.18;6.15;;;21.20;54.70;;;;;;5073918;28;20028;-75
2023/01/29 03:00:14;;;;;;;10.15;6.10;;;21.10;54.50;;;;;;5047675;28;20061;-75
2023/01/29 03:02:48;;;;;;;10.68;6.25;;;21.20;54.50;;;;;;5014540;28;20120;-75
2023/01/29 03:05:28;;;;;;;11.10;6.22;;;21.10;54.50;;;;;;5014724;28;20053;-75
2023/01/29 03:08:01;;;;;;;9.82;5.65;;;21.00;54.50;;;;;;5031146;28;20103;-75
2023/01/29 03:10:43;;;;;;;10.55;5.80;;;21.10;54.50;;;;;;5013691;28;20037;-75
2023/01/29 03:13:39;;;;;;;9.35;6.07;;;21.00;54.40;;;;;;5045653;28;20081;-75
2023/01/29 03:16:13;;;;;;;13.52;6.68;;;21.00;54.40;;;;;;5047098;28;20033;-75
2023/01/29 03:18:57;;;;;;;10.48;6.10;;;20.90;54.40;;;;;;5014408;28;20125;-75
2023/01/29 03:21:53;;;;;;;9.82;6.35;;;20.90;54.40;;;;;;5014217;28;20053;-75
2023/01/29 03:33:08;;;;;;;8.73;6.25;;;20.90;54.20;;;;;;5014049;28;20033;-75
2023/01/29 03:35:41;;;;;;;10.25;5.93;;;21.00;54.00;;;;;;5021797;28;20053;-75
2023/01/29 03:38:09;;;;;;;;;;;20.70;53.70;;;;;;5055668;28;20052;-75
2023/01/29 03:40:49;;;;;;;9.30;5.85;;;21.00;53.80;;;;;;5071684;28;19998;-75
2023/01/29 03:43:41;;;;;;;10.43;6.03;;;21.00;53.80;;;;;;5071423;28;20082;-75
2023/01/29 03:46:21;;;;;;;9.93;5.95;;;21.00;53.80;;;;;;5072718;28;20024;-75
2023/01/29 03:48:57;;;;;;;8.82;5.32;;;21.00;53.60;;;;;;5072905;28;20115;-75
2023/01/29 03:51:29;;;;;;;9.30;5.93;;;21.00;53.50;;;;;;5072654;28;20028;-75
2023/01/29 03:54:04;;;;;;;8.65;6.10;;;21.10;53.30;;;;;;5071264;28;20388;-75
2023/01/29 03:56:36;;;;;;;8.88;5.05;;;21.20;53.30;;;;;;5071368;28;20378;-75
2023/01/29 03:59:36;;;;;;;11.27;5.77;;;21.00;53.20;;;;;;5071324;28;20074;-75
2023/01/29 04:02:28;;;;;;;9.77;5.13;;;21.00;53.30;;;;;;5072330;28;20640;-75
2023/01/29 04:05:12;;;;;;;8.35;5.55;;;21.00;53.30;;;;;;5071118;28;20118;-74
2023/01/29 04:07:54;;;;;;;7.97;5.22;;;21.00;53.10;;;;;;5071219;28;20033;-75
2023/01/29 04:10:25;;;;;;;9.32;5.82;;;20.90;53.20;;;;;;5071985;28;20386;-75
2023/01/29 04:13:04;;;;;;;6.00;4.13;;;21.00;53.30;;;;;;5072067;28;20071;-75
2023/01/29 04:15:37;;;;;;;7.40;4.80;;;20.80;53.20;;;;;;5071016;28;20436;-75
2023/01/29 04:18:04;;;;;;;7.47;5.03;;;21.00;53.30;;;;;;5071047;28;20036;-75
2023/01/29 04:20:45;;;;;;;9.52;4.50;;;20.80;53.20;;;;;;5070954;28;20037;-75
2023/01/29 04:23:21;;;;;;;9.38;5.38;;;20.80;53.20;;;;;;5071906;28;20077;-75
2023/01/29 04:26:14;;;;;;;7.93;4.93;;;20.80;53.00;;;;;;5070897;28;20032;-75
2023/01/29 04:29:06;;;;;;;8.98;5.85;;;20.90;53.20;;;;;;5070849;28;20028;-75
2023/01/29 04:31:41;;;;;;;8.38;5.07;;;20.80;53.10;;;;;;5029273;28;20164;-75
2023/01/29 04:34:39;;;;;;;10.13;4.80;;;20.90;53.00;;;;;;5012720;28;20041;-75
2023/01/29 04:37:35;;;;;;;8.30;5.45;;;20.80;52.80;;;;;;5012718;28;20041;-75
2023/01/29 04:40:14;;;;;;;7.28;5.18;;;20.80;52.80;;;;;;5045707;28;20077;-75
2023/01/29 04:43:04;;;;;;;9.30;5.80;;;20.90;53.00;;;;;;5029125;28;20037;-75
2023/01/29 04:45:42;;;;;;;9.40;5.28;;;21.00;52.90;;;;;;5021971;28;20118;-75
2023/01/29 04:48:28;;;;;;;8.40;5.45;;;20.90;52.80;;;;;;5049081;28;20033;-75
2023/01/29 04:51:03;;;;;;;8.20;5.65;;;20.90;52.60;;;;;;5049296;28;20033;-75
2023/01/29 04:53:46;;;;;;;8.27;5.40;;;21.00;52.60;;;;;;5032334;28;20044;-75
2023/01/29 04:56:22;;;;;;;9.43;5.07;;;21.00;52.60;;;;;;5049111;28;20052;-75
2023/01/29 04:58:54;;;;;;;10.27;5.70;;;21.00;52.60;;;;;;5048762;28;20285;-75
2023/01/29 05:01:24;;;;;;;6.85;4.63;;;21.00;52.40;;;;;;5048448;28;20131;-75
2023/01/29 05:03:53;;;;;;;4.90;3.45;;;21.00;52.30;;;;;;5031397;28;20033;-75
2023/01/29 05:06:20;;;;;;;5.93;4.03;;;21.00;52.30;;;;;;5047791;28;20051;-75
2023/01/29 05:08:48;;;;;;;7.13;4.13;;;21.10;52.20;;;;;;5064327;28;20048;-75
2023/01/29 05:11:15;;;;;;;6.75;4.43;;;21.10;51.90;;;;;;5091140;28;20035;-75
2023/01/29 05:13:42;;;;;;;5.22;3.53;;;21.10;52.00;;;;;;5091053;28;20600;-75
2023/01/29 05:16:22;;;;;;;7.32;4.35;;;21.00;52.00;;;;;;5090997;28;20113;-75
2023/01/29 05:18:49;;;;;;;5.45;4.20;;;21.10;52.00;;;;;;5090239;28;20044;-75
2023/01/29 05:21:15;;;;;;;9.13;4.95;;;21.00;52.00;;;;;;5090931;28;20499;-75
2023/01/29 05:23:51;;;;;;;6.95;4.03;;;21.00;52.10;;;;;;5089973;28;20032;-75
2023/01/29 05:29:05;;;;;;;7.30;4.43;;;21.00;52.20;;;;;;5091561;28;20377;-75
2023/01/29 05:31:31;;;;;;;6.43;4.20;;;20.80;52.30;;;;;;5091385;28;20028;-75
2023/01/29 05:33:57;;;;;;;4.95;3.90;;;20.90;52.50;;;;;;5089987;28;20609;-75
2023/01/29 05:36:25;;;;;;;8.55;4.78;;;20.80;52.30;;;;;;5072002;28;20044;-75
2023/01/29 05:38:51;;;;;;;7.38;4.82;;;20.80;52.40;;;;;;5090158;28;20028;-75
2023/01/29 05:41:17;;;;;;;7.65;4.20;;;21.00;52.40;;;;;;5091303;28;20128;-75
2023/01/29 05:43:43;;;;;;;7.35;4.28;;;20.80;52.20;;;;;;5091328;28;20024;-75
2023/01/29 05:46:09;;;;;;;5.82;4.32;;;20.90;52.30;;;;;;5091110;28;20024;-75
2023/01/29 05:48:35;;;;;;;7.47;4.78;;;20.90;52.30;;;;;;5091192;28;20111;-75
2023/01/29 05:51:03;;;;;;;8.50;5.35;;;21.00;52.10;;;;;;5091254;28;20028;-75
2023/01/29 05:53:30;;;;;;;10.55;5.05;;;20.90;52.10;;;;;;5091117;28;20481;-76
2023/01/29 05:55:59;;;;;;;7.68;4.72;;;21.00;52.20;;;;;;5091206;28;20798;-75
2023/01/29 05:58:25;;;;;;;7.00;4.07;;;20.90;52.20;;;;;;5091173;28;20028;-75
2023/01/29 06:00:51;;;;;;;9.43;5.63;;;21.00;52.10;;;;;;5091215;28;20105;-76
2023/01/29 06:03:17;;;;;;;8.07;5.82;;;21.10;52.10;;;;;;5091038;28;20134;-77
2023/01/29 06:05:43;;;;;;;7.95;6.03;;;21.20;52.20;;;;;;5091210;28;20077;-76
2023/01/29 06:08:09;;;;;;;8.00;6.15;;;21.30;55.30;;;;;;5089835;28;20489;-75
2023/01/29 06:10:35;;;;;;;9.90;6.45;;;21.50;57.20;;;;;;5091141;28;20077;-76
2023/01/29 06:13:01;;;;;;;9.13;6.80;;;21.70;57.10;;;;;;5089733;28;20085;-75
2023/01/29 06:15:27;;;;;;;9.85;5.88;;;21.90;57.10;;;;;;5091007;28;20040;-75
2023/01/29 06:17:54;;;;;;;8.27;5.75;;;22.00;57.90;;;;;;5090830;28;20534;-74
2023/01/29 06:20:20;;;;;;;7.78;5.55;;;22.30;58.70;;;;;;5091079;28;20119;-77
2023/01/29 06:22:46;;;;;;;7.32;5.65;;;22.40;58.20;;;;;;5091068;28;20042;-75
2023/01/29 06:25:12;;;;;;;7.03;5.82;;;22.40;58.40;;;;;;5105205;28;20044;-75
2023/01/29 06:27:38;;;;;;;8.02;5.72;;;22.60;56.00;;;;;;5090824;28;20079;-77
2023/01/29 06:30:05;;;;;;;10.00;5.93;;;22.70;56.90;;;;;;5088325;28;20105;-79
2023/01/29 06:32:31;;;;;;;5.63;4.40;;;22.70;58.50;;;;;;5094249;28;20115;-78
2023/01/29 06:34:57;;;;;;;7.07;5.75;;;22.70;60.90;;;;;;5094486;28;20114;-76
2023/01/29 06:37:23;;;;;;;9.52;6.35;;;22.80;61.20;;;;;;5091897;28;20127;-76
2023/01/29 06:39:49;;;;;;;10.98;7.03;;;22.70;60.60;;;;;;5094090;28;20444;-78
2023/01/29 06:42:15;;;;;;;11.15;7.63;;;22.80;61.60;;;;;;5094190;28;20032;-78
2023/01/29 06:44:41;;;;;;;11.30;8.30;;;22.80;60.60;;;;;;5093798;28;20027;-75
2023/01/29 06:47:07;;;;;;;11.65;8.82;;;22.80;61.10;;;;;;5093747;28;20119;-75
2023/01/29 06:49:33;;;;;;;11.55;8.70;;;22.90;60.80;;;;;;5093721;28;20028;-77
2023/01/29 06:51:59;;;;;;;10.10;8.48;;;22.90;61.30;;;;;;5091076;28;20044;-73
2023/01/29 06:54:25;;;;;;;11.98;8.75;;;22.90;61.70;;;;;;5091332;28;20044;-75
2023/01/29 06:56:51;;;;;;;11.10;7.60;;;23.10;62.50;;;;;;5091321;28;20032;-75
2023/01/29 06:59:17;;;;;;;11.93;6.53;;;22.90;56.50;;;;;;5091283;28;20108;-74
2023/01/29 07:01:43;;;;;;;12.85;6.63;;;22.80;55.90;;;;;;5090471;28;20126;-73
2023/01/29 07:04:10;;;;;;;9.57;6.07;;;22.70;55.80;;;;;;5090901;28;20157;-73
2023/01/29 07:06:36;;;;;;;9.20;6.43;;;22.40;56.20;;;;;;5090705;28;20035;-73
2023/01/29 07:09:03;;;;;;;9.57;6.07;;;22.30;56.30;;;;;;5090716;28;20133;-73
2023/01/29 07:11:29;;;;;;;9.23;6.18;;;22.10;56.40;;;;;;5090519;28;20078;-73
2023/01/29 07:13:55;;;;;;;8.23;5.30;;;22.00;56.80;;;;;;5090235;28;20110;-73
2023/01/29 07:16:22;;;;;;;6.90;5.07;;;21.90;57.10;;;;;;5090509;28;20028;-73
2023/01/29 07:18:48;;;;;;;8.85;5.60;;;21.90;57.80;;;;;;5086243;28;20040;-73
2023/01/29 07:21:14;;;;;;;8.07;5.25;;;21.80;57.60;;;;;;5057152;28;20126;-74
2023/01/29 07:23:40;;;;;;;16.13;6.10;;;21.90;58.40;;;;;;5092692;28;20190;-76
2023/01/29 07:26:06;;;;;;;7.60;4.05;;;21.70;58.30;;;;;;5092072;28;20122;-74
2023/01/29 07:28:37;;;;;;;9.02;5.10;;;21.70;59.30;;;;;;5075490;28;20032;-74
2023/01/29 07:31:03;;;;;;;7.45;4.30;;;21.80;59.00;;;;;;5092545;28;20372;-74
2023/01/29 07:33:30;;;;;;;10.55;4.88;;;22.00;58.40;;;;;;5093770;28;20035;-74
2023/01/29 07:35:56;;;;;;;7.20;5.70;;;22.10;57.70;;;;;;5093568;28;20031;-79
2023/01/29 07:38:22;;;;;;;7.78;4.78;;;22.20;56.70;;;;;;5091151;28;20039;-76
2023/01/29 07:40:50;;;;;;;6.57;4.63;;;22.20;56.20;;;;;;5093336;28;20040;-81
2023/01/29 07:43:16;;;;;;;10.60;5.97;;;22.30;55.60;;;;;;5072832;28;20170;-79
2023/01/29 07:45:42;;;;;;;5.30;3.05;;;22.50;58.70;;;;;;5073102;28;20115;-82
2023/01/29 07:48:11;;;;;;;6.32;4.00;;;22.90;58.10;;;;;;5073406;28;20036;-78
2023/01/29 07:50:38;;;;;;;11.82;6.53;;;23.00;55.50;;;;;;5079567;28;20630;-82
2023/01/29 07:53:04;;;;;;;9.15;5.65;;;23.00;52.90;;;;;;5093512;28;20032;-82
2023/01/29 07:55:31;;;;;;;9.95;5.05;;;22.90;53.90;;;;;;5093140;28;20028;-80
2023/01/29 07:57:59;;;;;;;7.80;5.18;;;22.80;53.80;;;;;;5090614;28;20040;-83
2023/01/29 08:00:26;;;;;;;9.35;4.65;;;22.90;54.40;;;;;;5093137;28;20472;-81
2023/01/29 08:02:52;;;;;;;8.05;5.03;;;22.70;54.30;;;;;;5092463;28;20372;-77
2023/01/29 08:05:19;;;;;;;6.50;4.35;;;22.50;55.10;;;;;;5073537;28;20043;-80
2023/01/29 08:07:45;;;;;;;6.38;4.47;;;22.50;55.40;;;;;;5092952;28;20032;-79
2023/01/29 08:10:11;;;;;;;8.60;4.80;;;22.50;54.60;;;;;;5093107;28;20097;-80
2023/01/29 08:12:37;;;;;;;5.95;4.20;;;22.30;56.00;;;;;;5093115;28;20265;-79
2023/01/29 08:15:03;;;;;;;6.85;4.47;;;22.30;56.20;;;;;;5093052;28;20183;-81
2023/01/29 08:17:29;;;;;;;5.78;4.43;;;22.20;55.60;;;;;;5091709;28;20050;-80
2023/01/29 08:19:55;;;;;;;5.50;4.50;;;22.20;54.80;;;;;;5092838;28;20036;-78
2023/01/29 08:22:21;;;;;;;3.90;3.00;;;22.20;56.50;;;;;;5092621;28;20032;-80
2023/01/29 08:24:47;;;;;;;5.55;3.80;;;22.00;56.20;;;;;;5074365;28;20031;-80
2023/01/29 08:27:16;;;;;;;4.40;3.97;;;22.00;56.60;;;;;;5091789;28;20032;-79
2023/01/29 08:29:42;;;;;;;5.55;3.30;;;22.10;57.80;;;;;;5092490;28;20452;-83
2023/01/29 08:32:11;;;;;;;5.00;3.60;;;22.20;56.70;;;;;;5092213;28;20039;-79
2023/01/29 08:34:37;;;;;;;5.47;3.70;;;22.20;56.20;;;;;;5092166;28;20039;-84
2023/01/29 08:37:03;;;;;;;6.63;3.53;;;22.30;57.80;;;;;;5092467;28;20036;-82
2023/01/29 08:39:29;;;;;;;5.90;3.90;;;22.40;57.50;;;;;;5092527;28;20040;-80
2023/01/29 08:41:55;;;;;;;7.45;4.53;;;22.30;57.40;;;;;;5092644;28;20032;-83
2023/01/29 08:44:21;;;;;;;4.20;3.35;;;22.40;56.30;;;;;;5092116;28;20075;-77
2023/01/29 08:46:47;;;;;;;5.35;3.28;;;22.30;55.50;;;;;;5091839;28;20198;-83
2023/01/29 08:49:13;;;;;;;5.28;3.35;;;22.10;58.30;;;;;;5091593;28;20076;-79
2023/01/29 08:51:39;;;;;;;6.18;4.00;;;22.20;58.90;;;;;;5092527;28;20065;-78
2023/01/29 08:54:05;;;;;;;6.07;3.65;;;22.00;58.40;;;;;;5091531;28;20032;-81
2023/01/29 08:56:31;;;;;;;7.63;3.75;;;22.00;56.80;;;;;;5091942;28;20036;-84
2023/01/29 08:58:57;;;;;;;4.47;3.72;;;21.90;58.00;;;;;;5092202;28;20027;-80
2023/01/29 09:01:26;;;;;;;5.43;4.03;;;21.80;59.70;;;;;;5090961;28;20036;-78
2023/01/29 09:03:52;;;;;;;5.13;3.60;;;21.60;57.50;;;;;;5090703;28;20026;-82
2023/01/29 09:06:21;;;;;;;7.38;3.70;;;21.70;59.60;;;;;;5090443;28;20028;-79
2023/01/29 09:08:48;;;;;;;3.90;3.25;;;21.60;60.00;;;;;;5091789;28;20052;-80
2023/01/29 09:11:14;;;;;;;3.97;2.85;;;21.80;60.20;;;;;;5092136;28;20526;-83
2023/01/29 09:13:40;;;;;;;6.60;3.90;;;21.70;59.40;;;;;;5091828;28;20056;-83
2023/01/29 09:16:06;;;;;;;4.85;3.17;;;21.70;59.20;;;;;;5091991;28;20078;-87
2023/01/29 09:18:32;;;;;;;4.18;2.90;;;21.70;59.10;;;;;;5091755;28;20027;-80
2023/01/29 09:20:58;;;;;;;5.20;3.55;;;21.90;58.90;;;;;;5091731;28;20044;-76
2023/01/29 09:23:24;;;;;;;6.07;3.47;;;21.90;61.80;;;;;;5091696;28;20119;-78
2023/01/29 09:25:50;;;;;;;6.32;4.53;;;21.90;64.60;;;;;;5046389;28;20131;-79
2023/01/29 09:28:16;;;;;;;4.28;3.10;;;21.90;65.90;;;;;;5065318;28;20218;-81
2023/01/29 09:30:43;;;;;;;7.40;4.05;;;21.90;67.40;;;;;;5062211;28;20048;-76
2023/01/29 09:33:09;;;;;;;7.10;4.20;;;22.10;65.00;;;;;;5056083;28;20112;-84
2023/01/29 09:35:35;;;;;;;4.32;3.20;;;22.10;63.70;;;;;;5052025;28;20405;-80
2023/01/29 09:38:02;;;;;;;6.20;3.33;;;22.20;63.20;;;;;;5069046;28;20033;-84
2023/01/29 09:40:30;;;;;;;4.30;3.75;;;22.10;61.80;;;;;;5068855;28;20052;-83
2023/01/29 09:43:11;;;;;;;5.47;3.80;;;22.20;62.70;;;;;;5049465;28;20049;-85
2023/01/29 09:45:44;;;;;;;7.22;3.88;;;22.00;62.60;;;;;;5032378;28;20052;-79
2023/01/29 09:48:11;;;;;;;4.68;3.33;;;22.00;62.90;;;;;;5048653;28;20115;-79
2023/01/29 09:50:40;;;;;;;5.70;3.58;;;21.90;61.20;;;;;;5048360;28;20048;-82
2023/01/29 09:53:17;;;;;;;4.45;3.25;;;22.10;62.80;;;;;;5048921;28;20063;-79
2023/01/29 09:55:49;;;;;;;4.93;3.20;;;22.00;60.50;;;;;;5048915;28;20124;-83
2023/01/29 09:58:39;;;;;;;5.15;3.35;;;22.10;61.60;;;;;;5081789;28;20036;-82
2023/01/29 10:01:23;;;;;;;6.60;3.78;;;22.10;61.30;;;;;;5048048;28;20561;-84
2023/01/29 10:04:30;;;;;;;5.40;3.88;;;22.20;61.30;;;;;;5048426;28;20072;-78
2023/01/29 10:07:15;;;;;;;3.95;3.28;;;22.40;63.10;;;;;;5017487;28;20137;-82
2023/01/29 10:09:58;;;;;;;4.57;3.20;;;22.80;61.30;;;;;;5032410;28;20127;-83
2023/01/29 10:12:30;;;;;;;9.30;4.72;;;23.20;59.80;;;;;;5032436;28;20436;-84
2023/01/29 10:15:18;;;;;;;10.50;5.03;;;23.40;58.90;;;;;;5032646;28;20049;-78
2023/01/29 10:17:57;;;;;;;9.23;4.30;;;23.60;57.20;;;;;;5032131;28;20045;-78
2023/01/29 10:20:41;;;;;;;5.57;2.95;;;24.00;58.10;;;;;;5032406;28;20057;-84
2023/01/29 10:23:31;;;;;;;5.75;3.58;;;24.10;55.20;;;;;;5032265;28;20473;-84
2023/01/29 10:25:57;;;;;;;4.53;3.50;;;24.10;54.60;;;;;;5032184;28;20053;-85
2023/01/29 10:28:32;;;;;;;3.83;3.05;;;24.00;55.90;;;;;;5032271;28;20371;-84
2023/01/29 10:31:03;;;;;;;5.13;3.55;;;24.10;55.50;;;;;;5032147;28;20038;-82
2023/01/29 10:33:32;;;;;;;4.43;3.13;;;23.90;56.40;;;;;;5032435;28;20038;-81
2023/01/29 10:36:02;;;;;;;2.80;2.50;;;24.00;55.80;;;;;;5032028;28;20547;-83
2023/01/29 10:38:51;;;;;;;5.40;4.55;;;23.90;52.70;;;;;;5058506;28;20070;-83
2023/01/29 10:41:39;;;;;;;6.78;4.43;;;24.10;55.40;;;;;;5071950;28;20048;-73
2023/01/29 10:44:23;;;;;;;3.65;3.00;;;24.20;55.10;;;;;;5087603;28;20475;-82
2023/01/29 10:47:29;;;;;;;5.45;3.53;;;24.50;58.40;;;;;;5092426;28;20039;-76
2023/01/29 10:49:58;;;;;;;10.30;3.53;;;24.50;56.20;;;;;;5093911;28;20086;-86
2023/01/29 10:52:57;;;;;;;4.90;3.97;;;24.60;56.30;;;;;;5094529;28;20420;-82
2023/01/29 10:55:38;;;;;;;4.60;2.90;;;24.80;53.10;;;;;;5092512;28;20044;-81
2023/01/29 10:58:30;;;;;;;3.90;3.20;;;24.90;54.70;;;;;;5091662;28;20062;-82
2023/01/29 11:00:57;;;;;;;4.13;3.25;;;25.00;55.30;;;;;;5074032;28;20077;-80
2023/01/29 11:03:33;;;;;;;4.22;3.08;;;25.20;50.30;;;;;;5088472;28;20035;-86
2023/01/29 11:06:06;;;;;;;4.28;2.97;;;25.00;49.80;;;;;;5092923;28;20024;-80
2023/01/29 11:08:46;;;;;;;4.30;2.42;;;25.10;52.70;;;;;;5093145;28;20032;-84
2023/01/29 11:11:16;;;;;;;3.97;3.45;;;25.30;52.80;;;;;;5093765;28;20137;-78
2023/01/29 11:13:49;;;;;;;4.22;3.60;;;25.40;55.60;;;;;;5091686;28;20043;-80
2023/01/29 11:16:15;;;;;;;4.07;3.20;;;25.40;49.40;;;;;;5060147;28;20055;-79
2023/01/29 11:18:53;;;;;;;5.43;3.90;;;25.30;47.90;;;;;;5093803;28;20035;-78
2023/01/29 11:21:20;;;;;;;3.50;3.15;;;25.20;44.50;;;;;;5099897;28;20169;-80
2023/01/29 11:23:46;;;;;;;4.10;3.17;;;25.10;44.70;;;;;;5111755;28;20063;-82
2023/01/29 11:26:19;;;;;;;4.22;3.47;;;25.00;47.50;;;;;;5074275;28;20048;-78
2023/01/29 11:28:49;;;;;;;4.63;3.78;;;24.90;46.50;;;;;;5093510;28;20402;-80
2023/01/29 11:31:24;;;;;;;5.18;3.75;;;24.90;46.40;;;;;;5098723;28;20059;-79
2023/01/29 11:34:00;;;;;;;4.47;3.70;;;24.90;46.60;;;;;;5093571;28;20040;-80
2023/01/29 11:36:31;;;;;;;4.75;3.50;;;24.80;46.30;;;;;;5091748;28;20768;-79
2023/01/29 11:39:22;;;;;;;4.47;3.58;;;24.70;45.80;;;;;;5093419;28;20027;-77
2023/01/29 11:42:12;;;;;;;4.88;4.13;;;24.80;45.60;;;;;;5010802;28;20041;-74
2023/01/29 11:44:38;;;;;;;5.78;4.45;;;24.60;45.60;;;;;;5008166;28;20117;-75
2023/01/29 11:47:20;;;;;;;7.65;4.28;;;24.70;45.80;;;;;;5010881;28;20148;-81
2023/01/29 11:49:59;;;;;;;5.47;3.87;;;24.70;48.10;;;;;;5011020;28;20038;-81
2023/01/29 11:52:36;;;;;;;5.88;4.07;;;24.50;50.00;;;;;;5011114;28;20103;-79
2023/01/29 11:55:43;;;;;;;5.90;4.47;;;24.50;52.60;;;;;;5010597;28;20042;-78
2023/01/29 11:58:20;;;;;;;7.72;4.18;;;24.70;52.10;;;;;;4933076;29;20056;-78
2023/01/29 12:00:50;;;;;;;5.55;4.38;;;24.70;50.80;;;;;;4933013;29;20086;-83
2023/01/29 12:03:20;;;;;;;4.35;3.50;;;24.70;52.30;;;;;;4917501;29;20054;-82
2023/01/29 12:05:57;;;;;;;9.40;4.75;;;24.50;53.40;;;;;;4933118;29;20052;-81
2023/01/29 12:08:24;;;;;;;7.55;3.83;;;24.30;54.20;;;;;;4932700;29;20051;-81
2023/01/29 12:10:50;;;;;;;5.88;4.07;;;24.10;54.70;;;;;;4932651;29;20057;-79
2023/01/29 12:13:35;;;;;;;7.32;3.95;;;24.00;55.50;;;;;;4933012;29;20067;-81
2023/01/29 12:16:34;;;;;;;5.63;3.80;;;24.00;56.00;;;;;;4913995;29;20091;-76
2023/01/29 12:19:24;;;;;;;5.50;3.65;;;23.90;56.70;;;;;;4951356;28;20046;-79
2023/01/29 12:22:00;;;;;;;5.25;3.72;;;23.80;57.00;;;;;;5010219;28;20046;-84
2023/01/29 12:24:51;;;;;;;5.40;3.78;;;23.60;57.40;;;;;;5010668;28;20077;-79
2023/01/29 12:27:28;;;;;;;6.25;3.63;;;23.60;57.90;;;;;;5009263;28;20091;-84
2023/01/29 12:30:11;;;;;;;4.20;3.70;;;23.60;58.40;;;;;;5009117;28;20042;-79
2023/01/29 12:32:40;;;;;;;;;;;23.50;58.50;;;;;;5011632;28;20159;-79
2023/01/29 12:35:15;;;;;;;6.05;3.55;;;23.50;58.90;;;;;;5090305;28;19908;-78
2023/01/29 12:37:53;;;;;;;4.53;3.47;;;23.30;58.90;;;;;;5091786;28;20020;-80
2023/01/29 12:40:23;;;;;;;3.55;2.60;;;23.20;59.00;;;;;;5090872;28;20111;-85
2023/01/29 12:42:55;;;;;;;4.57;3.20;;;23.20;59.20;;;;;;5092413;28;20084;-81
2023/01/29 12:45:25;;;;;;;5.27;3.57;;;23.30;59.30;;;;;;5092276;28;20518;-76
2023/01/29 12:47:59;;;;;;;5.32;3.50;;;23.20;57.90;;;;;;5091692;28;20024;-79
2023/01/29 12:50:28;;;;;;;5.47;3.53;;;23.00;60.10;;;;;;5071951;28;20491;-82
2023/01/29 12:53:22;;;;;;;4.82;3.33;;;23.00;60.40;;;;;;5089933;28;20020;-77
2023/01/29 12:55:58;;;;;;;4.53;2.85;;;22.80;60.90;;;;;;5091500;28;20468;-77
2023/01/29 12:58:36;;;;;;;6.32;4.03;;;22.90;62.10;;;;;;5092150;28;20031;-77
2023/01/29 13:01:13;;;;;;;6.68;3.92;;;22.80;62.10;;;;;;5091732;28;20452;-78
2023/01/29 13:04:01;;;;;;;6.18;4.25;;;22.90;61.40;;;;;;5091964;28;20384;-76
2023/01/29 13:06:33;;;;;;;5.18;4.25;;;22.70;61.90;;;;;;5091429;28;20058;-75
2023/01/29 13:09:08;;;;;;;7.20;4.30;;;22.70;62.70;;;;;;5091749;28;20555;-74
2023/01/29 13:11:51;;;;;;;6.18;4.13;;;22.70;62.50;;;;;;5091724;28;20020;-76
2023/01/29 13:14:24;;;;;;;7.53;3.67;;;22.60;61.90;;;;;;5091855;28;20038;-75
2023/01/29 13:16:56;;;;;;;6.25;4.07;;;22.50;62.40;;;;;;5091502;28;20040;-74
2023/01/29 13:19:31;;;;;;;4.00;2.72;;;22.70;61.70;;;;;;5091360;28;20039;-75
2023/01/29 13:22:01;;;;;;;6.00;3.30;;;22.70;62.00;;;;;;5091439;28;20032;-75
2023/01/29 13:24:38;;;;;;;5.35;4.00;;;22.70;61.90;;;;;;5091156;28;20046;-74
2023/01/29 13:27:05;;;;;;;5.57;3.80;;;22.90;62.10;;;;;;5068285;28;20036;-74
2023/01/29 13:29:32;;;;;;;5.10;3.40;;;22.90;61.50;;;;;;5071238;28;20029;-74
2023/01/29 13:32:00;;;;;;;3.85;2.88;;;22.80;61.40;;;;;;5089038;28;20115;-77
2023/01/29 13:34:41;;;;;;;4.63;2.95;;;22.80;64.20;;;;;;5071519;28;20040;-75
2023/01/29 13:37:32;;;;;;;4.95;3.60;;;23.10;61.50;;;;;;5089588;28;20483;-76
2023/01/29 13:40:00;;;;;;;5.55;3.10;;;23.00;61.30;;;;;;5092217;28;20028;-76
2023/01/29 13:42:42;;;;;;;5.28;3.42;;;23.00;61.70;;;;;;5095407;28;20058;-76
2023/01/29 13:45:21;;;;;;;6.77;3.33;;;22.90;61.40;;;;;;5095315;28;20048;-75